Time;durP1;ratioP1;P1;durP2;ratioP2;P2;SDS_P1;SDS_P2;PMS_P1;PMS_P2;Temp;Humidity;BMP_temperature;BMP_pressure;BME280_temperature;BME280_humidity;BME280_pressure;Samples;Min_cycle;Max_cycle;Signal;HPM_P1;HPM_P2
2021/05/05 00:01:54;;;;;;;2.20;2.00;;;;;;;;;;5135296;27;20203;-83
2021/05/05 00:04:21;;;;;;;4.20;2.80;;;;;;;;;;5137707;27;20187;-83
2021/05/05 00:06:48;;;;;;;4.27;2.03;;;;;;;;;;5139249;27;20191;-82
2021/05/05 00:09:16;;;;;;;3.97;1.70;;;;;;;;;;5132461;27;20502;-83
2021/05/05 00:11:43;;;;;;;3.47;2.00;;;;;;;;;;5131306;27;20198;-83
2021/05/05 00:14:11;;;;;;;1.90;1.60;;;;;;;;;;5133028;27;20651;-81
2021/05/05 00:16:39;;;;;;;4.18;1.75;;;;;;;;;;5133151;27;20454;-82
2021/05/05 00:19:06;;;;;;;2.17;1.60;;;;;;;;;;5134984;27;20229;-82
2021/05/05 00:21:34;;;;;;;4.50;1.50;;;;;;;;;;5134449;27;20214;-82
2021/05/05 00:24:00;;;;;;;2.60;1.50;;;;;;;;;;5134611;27;20194;-83
2021/05/05 00:26:28;;;;;;;2.83;1.98;;;;;;;;;;5137439;27;20224;-81
2021/05/05 00:28:55;;;;;;;4.15;1.90;;;;;;;;;;5139182;27;20220;-81
2021/05/05 00:31:21;;;;;;;1.85;1.67;;;;;;;;;;5132257;27;20190;-80
2021/05/05 00:33:49;;;;;;;2.95;2.33;;;;;;;;;;5132017;27;20265;-82
2021/05/05 00:36:16;;;;;;;3.92;1.70;;;;;;;;;;5132323;27;20199;-81
2021/05/05 00:38:46;;;;;;;2.33;1.80;;;;;;;;;;5132796;27;20717;-81
2021/05/05 00:41:13;;;;;;;3.38;2.15;;;;;;;;;;5134445;27;20448;-83
2021/05/05 00:43:40;;;;;;;3.90;2.25;;;;;;;;;;5133348;27;20201;-82
2021/05/05 00:46:07;;;;;;;2.53;1.70;;;;;;;;;;5134236;27;20287;-83
2021/05/05 00:48:34;;;;;;;2.28;1.77;;;;;;;;;;5138690;27;20224;-83
2021/05/05 00:51:03;;;;;;;4.78;2.28;;;;;;;;;;5132646;27;20744;-82
2021/05/05 00:53:29;;;;;;;2.85;1.98;;;;;;;;;;5132395;27;20239;-83
2021/05/05 00:55:56;;;;;;;3.05;1.88;;;;;;;;;;5133535;27;20199;-82
2021/05/05 00:58:23;;;;;;;4.07;1.70;;;;;;;;;;5132488;27;20318;-83
2021/05/05 01:00:51;;;;;;;2.17;1.50;;;;;;;;;;5134143;27;20669;-81
2021/05/05 01:03:17;;;;;;;2.35;1.73;;;;;;;;;;5132970;27;20208;-83
2021/05/05 01:05:47;;;;;;;3.85;2.13;;;;;;;;;;5133897;27;20199;-81
2021/05/05 01:08:16;;;;;;;1.98;1.60;;;;;;;;;;5135988;27;20233;-81
2021/05/05 01:10:43;;;;;;;3.15;2.00;;;;;;;;;;5137204;27;20282;-82
2021/05/05 01:13:10;;;;;;;5.63;1.60;;;;;;;;;;5149122;27;20595;-83
2021/05/05 01:15:37;;;;;;;4.32;1.67;;;;;;;;;;5152292;27;20192;-82
2021/05/05 01:18:04;;;;;;;4.82;1.73;;;;;;;;;;5152363;27;20219;-80
2021/05/05 01:20:31;;;;;;;2.65;1.75;;;;;;;;;;5150295;27;20200;-82
2021/05/05 01:22:59;;;;;;;1.90;1.50;;;;;;;;;;5132396;27;20198;-83
2021/05/05 01:25:26;;;;;;;3.58;1.90;;;;;;;;;;5133783;27;20200;-79
2021/05/05 01:27:53;;;;;;;4.30;1.65;;;;;;;;;;5133437;27;20268;-80
2021/05/05 01:30:21;;;;;;;4.00;1.75;;;;;;;;;;5134927;27;20303;-81
2021/05/05 01:32:48;;;;;;;2.00;1.45;;;;;;;;;;5137231;27;20191;-81
2021/05/05 01:35:16;;;;;;;3.80;1.80;;;;;;;;;;5149169;27;20236;-81
2021/05/05 01:37:43;;;;;;;2.60;1.63;;;;;;;;;;5151543;27;20280;-81
2021/05/05 01:40:12;;;;;;;2.92;1.70;;;;;;;;;;5151708;27;20188;-81
2021/05/05 01:42:39;;;;;;;2.50;2.00;;;;;;;;;;5150414;27;20213;-81
2021/05/05 01:45:07;;;;;;;2.05;1.52;;;;;;;;;;5133192;27;20200;-81
2021/05/05 01:47:34;;;;;;;2.20;1.70;;;;;;;;;;5133406;27;20213;-81
2021/05/05 01:50:01;;;;;;;2.65;1.75;;;;;;;;;;5132616;27;20789;-83
2021/05/05 01:52:28;;;;;;;2.33;1.60;;;;;;;;;;5134492;27;20194;-80
2021/05/05 01:54:54;;;;;;;2.40;1.88;;;;;;;;;;5137533;27;20246;-82
2021/05/05 01:57:23;;;;;;;2.80;1.70;;;;;;;;;;5147601;27;20223;-82
2021/05/05 01:59:50;;;;;;;3.08;1.73;;;;;;;;;;5151381;27;20289;-82
2021/05/05 02:02:18;;;;;;;2.60;2.10;;;;;;;;;;5151453;27;20728;-81
2021/05/05 02:04:44;;;;;;;3.47;1.90;;;;;;;;;;5149392;27;20544;-82
2021/05/05 02:07:11;;;;;;;2.17;1.58;;;;;;;;;;5132912;27;20193;-83
2021/05/05 02:09:38;;;;;;;4.03;2.05;;;;;;;;;;5132819;27;20217;-81
2021/05/05 02:12:05;;;;;;;3.15;1.90;;;;;;;;;;5132901;27;20194;-82
2021/05/05 02:14:33;;;;;;;3.60;2.50;;;;;;;;;;5136699;27;20198;-80
2021/05/05 02:17:00;;;;;;;2.58;2.08;;;;;;;;;;5139731;27;20248;-81
2021/05/05 02:19:27;;;;;;;2.08;1.80;;;;;;;;;;5146948;27;20219;-84
2021/05/05 02:21:54;;;;;;;4.20;2.22;;;;;;;;;;5151166;27;20636;-82
2021/05/05 02:24:21;;;;;;;3.47;1.90;;;;;;;;;;5151078;27;20187;-82
2021/05/05 02:26:47;;;;;;;3.35;2.22;;;;;;;;;;5151932;27;20240;-82
2021/05/05 02:29:14;;;;;;;3.20;2.10;;;;;;;;;;5131817;27;20316;-84
2021/05/05 02:31:42;;;;;;;2.30;1.85;;;;;;;;;;5132304;27;20196;-81
2021/05/05 02:34:09;;;;;;;3.15;2.22;;;;;;;;;;5132303;27;20188;-79
2021/05/05 02:36:36;;;;;;;5.20;2.33;;;;;;;;;;5133728;27;20367;-82
2021/05/05 02:39:05;;;;;;;3.75;2.20;;;;;;;;;;5136842;27;20564;-82
2021/05/05 02:41:31;;;;;;;4.57;2.80;;;;;;;;;;5131312;27;20188;-81
2021/05/05 02:43:58;;;;;;;3.88;2.40;;;;;;;;;;5129732;27;20199;-81
2021/05/05 02:46:25;;;;;;;6.03;2.45;;;;;;;;;;5130602;27;20209;-82
2021/05/05 02:48:53;;;;;;;4.90;2.30;;;;;;;;;;5129927;27;20224;-80
2021/05/05 02:51:20;;;;;;;5.43;2.65;;;;;;;;;;5134503;27;20562;-80
2021/05/05 02:53:46;;;;;;;3.10;2.20;;;;;;;;;;5138439;27;20558;-80
2021/05/05 02:56:13;;;;;;;3.10;2.60;;;;;;;;;;5150193;27;20206;-82
2021/05/05 02:58:40;;;;;;;7.80;2.80;;;;;;;;;;5150517;27;20267;-83
2021/05/05 03:01:07;;;;;;;2.80;2.30;;;;;;;;;;5150549;27;20599;-81
2021/05/05 03:03:34;;;;;;;4.00;2.30;;;;;;;;;;5143990;27;20199;-80
2021/05/05 03:06:02;;;;;;;5.07;2.30;;;;;;;;;;5132166;27;20252;-81
2021/05/05 03:08:28;;;;;;;4.90;2.20;;;;;;;;;;5131912;27;20228;-81
2021/05/05 03:10:55;;;;;;;7.70;2.78;;;;;;;;;;5131848;27;20216;-82
2021/05/05 03:13:22;;;;;;;3.40;2.00;;;;;;;;;;5134731;27;20247;-83
2021/05/05 03:15:49;;;;;;;7.22;2.47;;;;;;;;;;5136486;27;20284;-81
2021/05/05 03:18:16;;;;;;;5.32;2.25;;;;;;;;;;5128984;27;20220;-81
2021/05/05 03:20:42;;;;;;;7.53;3.58;;;;;;;;;;5129474;27;20193;-81
2021/05/05 03:23:10;;;;;;;5.57;2.75;;;;;;;;;;5130013;27;20196;-81
2021/05/05 03:25:37;;;;;;;5.70;2.70;;;;;;;;;;5130082;27;20194;-81
2021/05/05 03:28:04;;;;;;;6.72;3.65;;;;;;;;;;5131823;27;20303;-82
2021/05/05 03:30:31;;;;;;;4.10;3.05;;;;;;;;;;5131895;27;20223;-81
2021/05/05 03:32:57;;;;;;;8.00;2.55;;;;;;;;;;5131869;27;20196;-82
2021/05/05 03:35:24;;;;;;;4.13;2.83;;;;;;;;;;5134361;27;20196;-82
2021/05/05 03:37:51;;;;;;;7.43;3.10;;;;;;;;;;5135618;27;20786;-81
2021/05/05 03:40:19;;;;;;;8.52;3.72;;;;;;;;;;5149619;27;20199;-82
2021/05/05 03:42:46;;;;;;;6.25;3.03;;;;;;;;;;5150188;27;20521;-81
2021/05/05 03:45:13;;;;;;;8.13;3.17;;;;;;;;;;5149943;27;20188;-82
2021/05/05 03:47:40;;;;;;;8.43;3.63;;;;;;;;;;5145347;27;20219;-81
2021/05/05 03:50:08;;;;;;;10.65;3.75;;;;;;;;;;5131426;27;20566;-80
2021/05/05 03:52:35;;;;;;;12.07;3.85;;;;;;;;;;5131666;27;20200;-81
2021/05/05 03:55:01;;;;;;;10.30;3.13;;;;;;;;;;5131467;27;20560;-81
2021/05/05 03:57:29;;;;;;;8.30;3.50;;;;;;;;;;5136604;27;20215;-81
2021/05/05 03:59:56;;;;;;;6.07;3.28;;;;;;;;;;5140093;27;20442;-80
2021/05/05 04:02:23;;;;;;;8.07;3.70;;;;;;;;;;5152805;27;20191;-82
2021/05/05 04:04:49;;;;;;;7.43;3.13;;;;;;;;;;5153948;27;20197;-81
2021/05/05 04:07:16;;;;;;;7.50;3.72;;;;;;;;;;5153869;27;20200;-81
2021/05/05 04:09:43;;;;;;;8.25;3.70;;;;;;;;;;5150458;27;20223;-81
2021/05/05 04:12:11;;;;;;;13.55;3.85;;;;;;;;;;5135230;27;20600;-81
2021/05/05 04:14:39;;;;;;;14.50;4.00;;;;;;;;;;5136594;27;20183;-80
2021/05/05 04:17:05;;;;;;;8.15;3.83;;;;;;;;;;5139369;27;20200;-79
2021/05/05 04:19:33;;;;;;;8.25;4.05;;;;;;;;;;5149651;27;20207;-82
2021/05/05 04:22:00;;;;;;;8.75;4.10;;;;;;;;;;5153156;27;20714;-81
2021/05/05 04:24:27;;;;;;;7.45;3.72;;;;;;;;;;5153049;27;20196;-81
2021/05/05 04:26:54;;;;;;;12.95;4.40;;;;;;;;;;5153044;27;20222;-81
2021/05/05 04:29:21;;;;;;;7.45;4.05;;;;;;;;;;5134492;27;20226;-82
2021/05/05 04:31:51;;;;;;;10.65;4.40;;;;;;;;;;5134689;27;20198;-82
2021/05/05 04:34:18;;;;;;;9.90;3.88;;;;;;;;;;5134431;27;20203;-82
2021/05/05 04:36:45;;;;;;;7.82;4.18;;;;;;;;;;5135983;27;20179;-83
2021/05/05 04:39:11;;;;;;;9.68;4.43;;;;;;;;;;5139123;27;20267;-81
2021/05/05 04:41:38;;;;;;;11.75;4.68;;;;;;;;;;5133719;27;20291;-83
2021/05/05 04:44:06;;;;;;;9.05;4.45;;;;;;;;;;5132360;27;20236;-82
2021/05/05 04:46:32;;;;;;;9.63;4.93;;;;;;;;;;5132089;27;20188;-82
2021/05/05 04:49:00;;;;;;;15.43;5.95;;;;;;;;;;5131986;27;20223;-80
2021/05/05 04:51:27;;;;;;;17.05;6.53;;;;;;;;;;5113683;28;20224;-81
2021/05/05 04:53:54;;;;;;;16.48;6.53;;;;;;;;;;5113986;28;20208;-81
2021/05/05 04:56:20;;;;;;;11.30;7.30;;;;;;;;;;5114024;28;20247;-81
2021/05/05 04:58:47;;;;;;;15.25;6.50;;;;;;;;;;5118936;27;20217;-80
2021/05/05 05:01:14;;;;;;;15.43;7.40;;;;;;;;;;5140952;27;20662;-81
2021/05/05 05:03:41;;;;;;;15.10;7.32;;;;;;;;;;5133408;27;20198;-81
2021/05/05 05:06:09;;;;;;;19.13;8.27;;;;;;;;;;5131943;27;20189;-81
2021/05/05 05:08:35;;;;;;;13.63;7.30;;;;;;;;;;5131857;27;20240;-80
2021/05/05 05:11:02;;;;;;;12.45;7.47;;;;;;;;;;5131695;27;20219;-81
2021/05/05 05:13:29;;;;;;;14.70;7.75;;;;;;;;;;5133423;27;20258;-80
2021/05/05 05:15:56;;;;;;;12.85;7.82;;;;;;;;;;5133777;27;20288;-80
2021/05/05 05:18:22;;;;;;;14.90;7.80;;;;;;;;;;5133484;27;20213;-81
2021/05/05 05:20:49;;;;;;;14.48;7.40;;;;;;;;;;5134299;27;20712;-81
2021/05/05 05:23:17;;;;;;;8.85;6.55;;;;;;;;;;5137934;27;20231;-82
2021/05/05 05:25:44;;;;;;;9.68;5.95;;;;;;;;;;5133184;27;20562;-82
2021/05/05 05:28:11;;;;;;;12.15;5.20;;;;;;;;;;5131190;27;20217;-81
2021/05/05 05:30:38;;;;;;;11.48;6.78;;;;;;;;;;5130990;27;20219;-80
2021/05/05 05:33:05;;;;;;;12.82;6.30;;;;;;;;;;5131271;27;20194;-81
2021/05/05 05:35:31;;;;;;;8.90;5.13;;;;;;;;;;5132660;27;20205;-81
2021/05/05 05:37:58;;;;;;;10.55;4.78;;;;;;;;;;5133310;27;20464;-80
2021/05/05 05:40:28;;;;;;;7.67;4.40;;;;;;;;;;5133450;27;20194;-80
2021/05/05 05:42:55;;;;;;;9.40;4.32;;;;;;;;;;5133870;27;20505;-81
2021/05/05 05:45:22;;;;;;;8.90;4.70;;;;;;;;;;5137850;27;20194;-80
2021/05/05 05:47:49;;;;;;;12.87;4.43;;;;;;;;;;5144495;27;20447;-80
2021/05/05 05:50:16;;;;;;;11.07;4.30;;;;;;;;;;5151645;27;20478;-82
2021/05/05 05:52:43;;;;;;;10.70;5.00;;;;;;;;;;5150150;27;20436;-81
2021/05/05 05:55:11;;;;;;;14.50;5.00;;;;;;;;;;5151702;27;20435;-80
2021/05/05 05:57:39;;;;;;;8.50;5.27;;;;;;;;;;5135895;27;20549;-81
2021/05/05 06:00:07;;;;;;;10.43;5.07;;;;;;;;;;5132806;27;20440;-82
2021/05/05 06:02:34;;;;;;;10.97;4.73;;;;;;;;;;5133122;27;20450;-82
2021/05/05 06:05:03;;;;;;;13.03;5.43;;;;;;;;;;5132136;27;20450;-84
2021/05/05 06:07:30;;;;;;;9.57;5.63;;;;;;;;;;5137357;27;20445;-77
2021/05/05 06:09:57;;;;;;;9.07;6.50;;;;;;;;;;5144211;27;20479;-81
2021/05/05 06:12:24;;;;;;;12.20;7.10;;;;;;;;;;5151161;27;20444;-80
2021/05/05 06:14:52;;;;;;;13.80;6.47;;;;;;;;;;5151243;27;20954;-76
2021/05/05 06:17:19;;;;;;;13.80;6.63;;;;;;;;;;5125382;27;20448;-79
2021/05/05 06:19:46;;;;;;;11.40;6.43;;;;;;;;;;5111351;27;20446;-82
2021/05/05 06:22:13;;;;;;;12.57;7.07;;;;;;;;;;5136801;27;20448;-80
2021/05/05 06:24:39;;;;;;;12.23;6.57;;;;;;;;;;5135307;27;20429;-80
2021/05/05 06:27:07;;;;;;;11.43;6.10;;;;;;;;;;5129963;27;20441;-82
2021/05/05 06:29:34;;;;;;;9.30;5.93;;;;;;;;;;5129941;27;20485;-80
2021/05/05 06:32:01;;;;;;;10.00;5.70;;;;;;;;;;5130449;27;20935;-79
2021/05/05 06:34:28;;;;;;;13.17;6.07;;;;;;;;;;5117181;27;20487;-79
2021/05/05 06:36:55;;;;;;;11.80;6.67;;;;;;;;;;5111743;28;20442;-80
2021/05/05 06:39:22;;;;;;;9.33;5.90;;;;;;;;;;5111703;28;20512;-80
2021/05/05 06:41:49;;;;;;;10.33;5.57;;;;;;;;;;5111724;28;20438;-79
2021/05/05 06:44:15;;;;;;;12.13;6.90;;;;;;;;;;5135477;27;20437;-81
2021/05/05 06:46:43;;;;;;;8.17;5.43;;;;;;;;;;5141587;27;20472;-81
2021/05/05 06:49:11;;;;;;;9.60;6.00;;;;;;;;;;5149273;27;20855;-80
2021/05/05 06:51:38;;;;;;;12.23;5.57;;;;;;;;;;5150706;27;20528;-80
2021/05/05 06:54:06;;;;;;;11.27;5.93;;;;;;;;;;5150784;27;20441;-79
2021/05/05 06:56:32;;;;;;;9.73;5.77;;;;;;;;;;5138615;27;20593;-80
2021/05/05 06:58:59;;;;;;;13.70;6.10;;;;;;;;;;5131268;27;20452;-79
2021/05/05 07:01:26;;;;;;;10.10;6.50;;;;;;;;;;5135081;27;20451;-81
2021/05/05 07:03:53;;;;;;;10.17;6.13;;;;;;;;;;5137950;27;20437;-78
2021/05/05 07:06:21;;;;;;;12.33;6.23;;;;;;;;;;5119883;27;20497;-84
2021/05/05 07:08:48;;;;;;;6.80;5.83;;;;;;;;;;5108428;28;20459;-82
2021/05/05 07:11:16;;;;;;;7.57;5.00;;;;;;;;;;5109051;28;20490;-79
2021/05/05 07:13:42;;;;;;;5.57;2.80;;;;;;;;;;5110244;28;20503;-80
2021/05/05 07:16:09;;;;;;;4.30;2.20;;;;;;;;;;5111467;28;20445;-79
2021/05/05 07:18:36;;;;;;;3.03;2.07;;;;;;;;;;5111593;28;20468;-82
2021/05/05 07:21:03;;;;;;;2.93;2.27;;;;;;;;;;5114165;28;20525;-81
2021/05/05 07:23:31;;;;;;;4.70;2.50;;;;;;;;;;5133406;27;20462;-79
2021/05/05 07:25:58;;;;;;;3.50;2.50;;;;;;;;;;5136818;27;20439;-81
2021/05/05 07:28:24;;;;;;;3.60;2.70;;;;;;;;;;5150048;27;20877;-79
2021/05/05 07:30:51;;;;;;;6.07;3.20;;;;;;;;;;5151928;27;21304;-79
2021/05/05 07:33:18;;;;;;;6.40;3.80;;;;;;;;;;5154776;27;20936;-82
2021/05/05 07:35:50;;;;;;;6.27;4.23;;;;;;;;;;5149351;27;20460;-81
2021/05/05 07:38:31;;;;;;;8.10;5.72;;;;;;;;;;5137793;27;20521;-84
2021/05/05 07:44:25;;;;;;;6.67;5.97;;;;;;;;;;5134273;27;20648;-81
2021/05/05 07:46:44;;;;;;;10.00;6.13;;;;;;;;;;5125787;27;20439;-80
2021/05/05 07:49:13;;;;;;;8.97;5.70;;;;;;;;;;5142832;27;20463;-83
2021/05/05 07:51:40;;;;;;;7.63;5.33;;;;;;;;;;5142504;27;20977;-82
2021/05/05 07:54:07;;;;;;;7.93;5.10;;;;;;;;;;5111960;28;20542;-78
2021/05/05 07:56:35;;;;;;;6.93;4.97;;;;;;;;;;5112684;28;20434;-79
2021/05/05 07:59:02;;;;;;;5.10;3.97;;;;;;;;;;5113638;28;20466;-80
2021/05/05 08:01:29;;;;;;;7.30;4.27;;;;;;;;;;5114704;28;20450;-80
2021/05/05 08:03:56;;;;;;;4.20;3.80;;;;;;;;;;5114783;28;20860;-84
2021/05/05 08:06:23;;;;;;;4.67;3.70;;;;;;;;;;5114488;28;20429;-81
2021/05/05 08:08:50;;;;;;;5.20;3.80;;;;;;;;;;5127573;27;20817;-80
2021/05/05 08:11:17;;;;;;;8.40;3.60;;;;;;;;;;5138039;27;20487;-83
2021/05/05 08:13:46;;;;;;;9.73;5.37;;;;;;;;;;5132721;27;20644;-82
2021/05/05 08:16:13;;;;;;;7.57;4.63;;;;;;;;;;5121270;27;20466;-80
2021/05/05 08:18:40;;;;;;;4.50;3.30;;;;;;;;;;5112424;28;20492;-82
2021/05/05 08:21:08;;;;;;;8.53;3.27;;;;;;;;;;5112873;27;20943;-81
2021/05/05 08:23:35;;;;;;;4.13;3.27;;;;;;;;;;5114052;27;20446;-80
2021/05/05 08:26:02;;;;;;;6.03;3.30;;;;;;;;;;5117089;27;20442;-80
2021/05/05 08:28:29;;;;;;;5.30;3.37;;;;;;;;;;5134357;27;20458;-80
2021/05/05 08:30:58;;;;;;;4.80;2.90;;;;;;;;;;5135964;27;20856;-83
2021/05/05 08:33:25;;;;;;;4.67;3.70;;;;;;;;;;5139255;27;20456;-83
2021/05/05 08:35:51;;;;;;;4.83;3.47;;;;;;;;;;5128474;27;20437;-81
2021/05/05 08:38:18;;;;;;;4.03;3.47;;;;;;;;;;5119852;27;20814;-80
2021/05/05 08:40:45;;;;;;;3.10;2.80;;;;;;;;;;5123489;27;20769;-81
2021/05/05 08:43:13;;;;;;;4.43;2.53;;;;;;;;;;5131689;27;20467;-81
2021/05/05 08:45:41;;;;;;;4.85;2.50;;;;;;;;;;5112954;28;20446;-78
2021/05/05 08:48:09;;;;;;;2.90;2.65;;;;;;;;;;5137294;27;20221;-78
2021/05/05 08:50:37;;;;;;;2.40;2.20;;;;;;;;;;5136083;27;20229;-79
2021/05/05 08:53:04;;;;;;;5.85;2.65;;;;;;;;;;5132293;27;20667;-83
2021/05/05 08:55:32;;;;;;;4.00;2.70;;;;;;;;;;5128160;27;20301;-82
2021/05/05 08:58:00;;;;;;;2.75;2.55;;;;;;;;;;5112033;28;20461;-80
2021/05/05 09:00:27;;;;;;;2.70;2.50;;;;;;;;;;5113270;28;20199;-81
2021/05/05 09:02:56;;;;;;;2.80;2.50;;;;;;;;;;5113856;28;21258;-82
2021/05/05 09:05:25;;;;;;;2.50;2.30;;;;;;;;;;5112064;28;20201;-78
2021/05/05 09:07:52;;;;;;;2.83;2.50;;;;;;;;;;5111993;28;20239;-84
2021/05/05 09:10:23;;;;;;;5.80;3.05;;;;;;;;;;5137057;27;20238;-79
2021/05/05 09:12:51;;;;;;;4.55;2.60;;;;;;;;;;5135694;27;20212;-79
2021/05/05 09:15:19;;;;;;;3.25;2.95;;;;;;;;;;5131914;27;20281;-79
2021/05/05 09:17:48;;;;;;;3.00;2.70;;;;;;;;;;5132329;27;20219;-80
2021/05/05 09:20:19;;;;;;;6.63;3.47;;;;;;;;;;5133173;27;20190;-80
2021/05/05 09:22:49;;;;;;;6.00;2.42;;;;;;;;;;5132642;27;20286;-82
2021/05/05 09:25:17;;;;;;;3.97;2.47;;;;;;;;;;5135890;27;20649;-80
2021/05/05 09:27:44;;;;;;;6.35;3.10;;;;;;;;;;5139140;27;20567;-84
2021/05/05 09:30:24;;;;;;;5.22;2.90;;;;;;;;;;5151967;27;20682;-81
2021/05/05 09:32:51;;;;;;;3.73;2.40;;;;;;;;;;5116748;27;20184;-80
2021/05/05 09:35:18;;;;;;;3.17;2.80;;;;;;;;;;5110277;28;20437;-78
2021/05/05 09:37:56;;;;;;;7.50;3.10;;;;;;;;;;5111778;27;20873;-80
2021/05/05 09:40:24;;;;;;;3.50;2.53;;;;;;;;;;5114396;28;20462;-79
2021/05/05 09:42:51;;;;;;;8.00;3.00;;;;;;;;;;5119302;28;20456;-82
2021/05/05 09:45:18;;;;;;;8.93;3.90;;;;;;;;;;5114331;28;20438;-84
2021/05/05 09:47:46;;;;;;;5.57;3.10;;;;;;;;;;5128610;27;20816;-83
2021/05/05 09:50:24;;;;;;;4.87;3.13;;;;;;;;;;5137907;27;20481;-82
2021/05/05 09:52:51;;;;;;;11.87;3.80;;;;;;;;;;5126293;27;20435;-82
2021/05/05 09:55:20;;;;;;;6.40;2.70;;;;;;;;;;5109912;28;20438;-83
2021/05/05 09:57:47;;;;;;;4.50;3.20;;;;;;;;;;5129504;27;20814;-82
2021/05/05 10:00:17;;;;;;;5.73;2.77;;;;;;;;;;5131827;27;20502;-83
2021/05/05 10:02:45;;;;;;;7.10;2.93;;;;;;;;;;5133660;27;20434;-82
2021/05/05 10:05:14;;;;;;;10.13;2.87;;;;;;;;;;5133040;27;20434;-82
2021/05/05 10:07:55;;;;;;;3.30;2.20;;;;;;;;;;5131654;27;20465;-81
2021/05/05 10:12:50;;;;;;;5.93;2.83;;;;;;;;;;5136616;27;20937;-85
2021/05/05 10:15:17;;;;;;;8.40;3.20;;;;;;;;;;5122345;27;20192;-83
2021/05/05 10:17:46;;;;;;;5.90;3.07;;;;;;;;;;5107378;28;20471;-80
2021/05/05 10:20:15;;;;;;;4.57;3.00;;;;;;;;;;5101541;28;20490;-81
2021/05/05 10:22:43;;;;;;;4.23;3.30;;;;;;;;;;5116339;27;20449;-84
2021/05/05 10:25:10;;;;;;;9.00;3.43;;;;;;;;;;5126615;27;20799;-82
2021/05/05 10:27:38;;;;;;;3.47;3.00;;;;;;;;;;5135761;27;20458;-83
2021/05/05 10:30:10;;;;;;;4.60;3.10;;;;;;;;;;5113348;28;20496;-79
2021/05/05 10:32:37;;;;;;;5.83;3.33;;;;;;;;;;5122853;27;20986;-82
2021/05/05 10:35:04;;;;;;;4.43;2.90;;;;;;;;;;5111417;28;20442;-77
2021/05/05 10:37:41;;;;;;;3.30;3.00;;;;;;;;;;5111799;28;20752;-80
2021/05/05 10:40:17;;;;;;;7.07;2.50;;;;;;;;;;5112494;28;20446;-84
2021/05/05 10:42:50;;;;;;;7.67;3.30;;;;;;;;;;5111749;28;20438;-81
2021/05/05 10:45:27;;;;;;;3.30;2.90;;;;;;;;;;5111723;28;20531;-82
2021/05/05 10:48:03;;;;;;;6.27;3.00;;;;;;;;;;5126928;27;20441;-81
2021/05/05 10:50:30;;;;;;;5.03;2.33;;;;;;;;;;5133932;27;20473;-83
2021/05/05 10:53:01;;;;;;;4.20;2.40;;;;;;;;;;5129172;27;20441;-81
2021/05/05 10:55:32;;;;;;;4.50;2.80;;;;;;;;;;5129379;27;20452;-81
2021/05/05 10:58:04;;;;;;;5.43;2.77;;;;;;;;;;5130020;27;20457;-81
2021/05/05 11:00:44;;;;;;;3.93;2.57;;;;;;;;;;5126189;27;20860;-81
2021/05/05 11:03:11;;;;;;;3.27;2.37;;;;;;;;;;5135582;27;20437;-84
2021/05/05 11:05:38;;;;;;;5.63;2.70;;;;;;;;;;5125248;27;20519;-81
2021/05/05 11:08:05;;;;;;;5.80;2.77;;;;;;;;;;5112009;28;20472;-81
2021/05/05 11:10:48;;;;;;;4.93;2.20;;;;;;;;;;5113943;28;20569;-84
2021/05/05 11:13:30;;;;;;;3.20;2.30;;;;;;;;;;5113137;27;20450;-83
2021/05/05 11:16:00;;;;;;;3.10;2.07;;;;;;;;;;5116024;28;20489;-82
2021/05/05 11:18:42;;;;;;;5.00;2.30;;;;;;;;;;5117545;28;20442;-82
2021/05/05 11:21:10;;;;;;;4.07;2.33;;;;;;;;;;5115269;28;21053;-82
2021/05/05 11:23:45;;;;;;;5.07;2.70;;;;;;;;;;5132139;27;20824;-83
2021/05/05 11:26:20;;;;;;;7.33;2.67;;;;;;;;;;5142616;27;20429;-83
2021/05/05 11:28:51;;;;;;;8.93;2.97;;;;;;;;;;5131695;27;20449;-83
2021/05/05 11:31:18;;;;;;;6.93;2.53;;;;;;;;;;5134740;27;20524;-83
2021/05/05 11:34:00;;;;;;;5.93;3.23;;;;;;;;;;5135909;27;20497;-84
2021/05/05 11:36:27;;;;;;;6.83;2.23;;;;;;;;;;5134407;27;20445;-85
2021/05/05 11:38:54;;;;;;;5.30;2.30;;;;;;;;;;5134723;27;20453;-81
2021/05/05 11:41:21;;;;;;;6.03;2.60;;;;;;;;;;5133730;27;20498;-81
2021/05/05 11:43:48;;;;;;;6.30;2.50;;;;;;;;;;5136071;27;20528;-81
2021/05/05 11:46:15;;;;;;;5.80;2.60;;;;;;;;;;5138507;27;20434;-82
2021/05/05 11:48:43;;;;;;;5.53;2.70;;;;;;;;;;5139714;27;20457;-83
2021/05/05 11:51:26;;;;;;;6.27;3.27;;;;;;;;;;5132698;27;20506;-83
2021/05/05 11:53:53;;;;;;;3.57;2.50;;;;;;;;;;5122499;27;20533;-85
2021/05/05 11:56:23;;;;;;;9.97;3.13;;;;;;;;;;5112460;28;20434;-83
2021/05/05 11:58:58;;;;;;;5.53;2.70;;;;;;;;;;5110722;27;20474;-83
2021/05/05 12:01:30;;;;;;;6.40;2.97;;;;;;;;;;5112983;28;20441;-83
2021/05/05 12:04:11;;;;;;;4.07;2.80;;;;;;;;;;5114014;27;20438;-83
2021/05/05 12:06:53;;;;;;;6.53;2.90;;;;;;;;;;5113172;28;20532;-83
2021/05/05 12:09:23;;;;;;;8.83;2.53;;;;;;;;;;5132687;27;20981;-83
2021/05/05 12:11:50;;;;;;;4.47;2.60;;;;;;;;;;5137494;27;20468;-82
2021/05/05 12:14:31;;;;;;;8.83;2.83;;;;;;;;;;5132249;27;20469;-83
2021/05/05 12:17:13;;;;;;;4.67;2.63;;;;;;;;;;5130258;27;20570;-84
2021/05/05 12:19:52;;;;;;;4.70;3.07;;;;;;;;;;5112088;28;20472;-83
2021/05/05 12:22:18;;;;;;;5.40;2.40;;;;;;;;;;5128853;27;20437;-83
2021/05/05 12:25:00;;;;;;;4.27;3.10;;;;;;;;;;5134173;27;21261;-83
2021/05/05 12:27:28;;;;;;;6.87;2.70;;;;;;;;;;5112086;28;20444;-82
2021/05/05 12:29:58;;;;;;;4.67;2.97;;;;;;;;;;5114005;28;20517;-82
2021/05/05 12:32:41;;;;;;;6.20;3.40;;;;;;;;;;5137812;27;20481;-83
2021/05/05 12:35:09;;;;;;;3.87;2.53;;;;;;;;;;5144015;27;20444;-82
2021/05/05 12:37:36;;;;;;;4.03;2.43;;;;;;;;;;5153066;27;20552;-81
2021/05/05 12:40:04;;;;;;;7.00;3.23;;;;;;;;;;5152992;27;20441;-82
2021/05/05 12:42:34;;;;;;;4.90;2.50;;;;;;;;;;5153518;27;20434;-84
2021/05/05 12:45:05;;;;;;;5.03;2.57;;;;;;;;;;5137203;27;20457;-79
2021/05/05 12:47:32;;;;;;;8.77;3.03;;;;;;;;;;5133536;27;20956;-78
2021/05/05 12:49:59;;;;;;;7.83;3.27;;;;;;;;;;5138606;27;20499;-82
2021/05/05 12:52:27;;;;;;;8.73;3.40;;;;;;;;;;5148985;27;20495;-83
2021/05/05 12:54:56;;;;;;;9.60;3.70;;;;;;;;;;5157928;27;20428;-82
2021/05/05 12:57:23;;;;;;;5.67;3.60;;;;;;;;;;5158410;27;20455;-82
2021/05/05 12:59:52;;;;;;;5.37;3.00;;;;;;;;;;5155598;27;20464;-83
2021/05/05 13:02:21;;;;;;;8.00;2.93;;;;;;;;;;5136050;27;20847;-83
2021/05/05 13:04:48;;;;;;;5.70;3.30;;;;;;;;;;5134332;27;20433;-82
2021/05/05 13:07:30;;;;;;;3.50;2.77;;;;;;;;;;5133538;27;20520;-81
2021/05/05 13:10:06;;;;;;;3.47;2.53;;;;;;;;;;5133939;27;20490;-83
2021/05/05 13:12:38;;;;;;;3.20;1.97;;;;;;;;;;5137977;27;20914;-82
2021/05/05 13:15:28;;;;;;;4.40;2.20;;;;;;;;;;5132447;27;20434;-83
2021/05/05 13:25:26;;;;;;;2.30;2.10;;;;;;;;;;5131405;27;20426;-82
2021/05/05 13:31:46;;;;;;;4.07;2.00;;;;;;;;;;5133388;27;21100;-83
2021/05/05 13:34:15;;;;;;;7.83;2.60;;;;;;;;;;5136523;27;20433;-81
2021/05/05 13:36:46;;;;;;;3.00;2.10;;;;;;;;;;5131846;27;20437;-84
2021/05/05 13:39:13;;;;;;;4.43;2.17;;;;;;;;;;5130946;27;20465;-81
2021/05/05 13:41:40;;;;;;;6.50;2.10;;;;;;;;;;5130762;27;20438;-85
2021/05/05 13:44:09;;;;;;;4.03;2.47;;;;;;;;;;5131450;27;20430;-82
2021/05/05 13:46:56;;;;;;;9.50;2.77;;;;;;;;;;5136590;27;20440;-85
2021/05/05 13:49:29;;;;;;;3.33;2.23;;;;;;;;;;5134509;27;20505;-82
2021/05/05 13:51:59;;;;;;;10.73;3.40;;;;;;;;;;5130948;27;20534;-84
2021/05/05 13:54:27;;;;;;;6.90;2.30;;;;;;;;;;5130870;27;20448;-83
2021/05/05 13:56:53;;;;;;;8.20;2.50;;;;;;;;;;5131085;27;20802;-81
2021/05/05 13:59:20;;;;;;;4.00;2.20;;;;;;;;;;5131701;27;20473;-84
2021/05/05 14:01:47;;;;;;;7.23;2.13;;;;;;;;;;5131786;27;20430;-83
2021/05/05 14:04:14;;;;;;;3.40;2.50;;;;;;;;;;5133061;27;20531;-82
2021/05/05 14:06:44;;;;;;;5.00;2.20;;;;;;;;;;5132563;27;20523;-83
2021/05/05 14:09:12;;;;;;;2.53;2.10;;;;;;;;;;5136704;27;20449;-82
2021/05/05 14:11:39;;;;;;;5.00;2.00;;;;;;;;;;5133730;27;20568;-81
2021/05/05 14:14:07;;;;;;;4.77;2.23;;;;;;;;;;5130925;27;20434;-84
2021/05/05 14:16:33;;;;;;;5.23;2.07;;;;;;;;;;5129142;27;20458;-83
2021/05/05 14:19:01;;;;;;;3.83;1.70;;;;;;;;;;5130365;27;20460;-82
2021/05/05 14:21:28;;;;;;;6.77;2.37;;;;;;;;;;5131252;27;20977;-81
2021/05/05 14:23:56;;;;;;;3.10;2.10;;;;;;;;;;5131484;27;20438;-81
2021/05/05 14:26:23;;;;;;;5.40;1.90;;;;;;;;;;5132917;27;20858;-83
2021/05/05 14:28:50;;;;;;;3.10;1.70;;;;;;;;;;5132966;27;21029;-79
2021/05/05 14:31:17;;;;;;;6.77;2.60;;;;;;;;;;5136063;27;20491;-80
2021/05/05 14:33:45;;;;;;;3.83;1.83;;;;;;;;;;5135696;27;20426;-81
2021/05/05 14:36:12;;;;;;;4.43;1.73;;;;;;;;;;5129631;27;20425;-81
2021/05/05 14:38:41;;;;;;;3.77;1.93;;;;;;;;;;5123182;27;20515;-81
2021/05/05 14:41:12;;;;;;;2.27;1.50;;;;;;;;;;5108193;28;20944;-81
2021/05/05 14:43:47;;;;;;;2.57;1.70;;;;;;;;;;5110163;28;20450;-82
2021/05/05 14:48:55;;;;;;;5.10;1.90;;;;;;;;;;5113238;27;20454;-83
2021/05/05 14:51:23;;;;;;;2.63;1.63;;;;;;;;;;5136471;27;20495;-81
2021/05/05 14:53:49;;;;;;;5.27;2.07;;;;;;;;;;5131491;27;20470;-80
2021/05/05 14:56:17;;;;;;;4.00;1.83;;;;;;;;;;5119595;28;20438;-81
2021/05/05 14:58:46;;;;;;;3.90;2.40;;;;;;;;;;5128197;27;21195;-82
2021/05/05 15:01:13;;;;;;;3.83;2.00;;;;;;;;;;5130203;27;20475;-81
2021/05/05 15:03:40;;;;;;;4.00;2.13;;;;;;;;;;5114188;27;20537;-82
2021/05/05 15:06:08;;;;;;;3.90;1.83;;;;;;;;;;5111690;28;20453;-80
2021/05/05 15:08:42;;;;;;;3.60;2.40;;;;;;;;;;5111385;28;20457;-79